sensor_id;sensor_type;location;lat;lon;timestamp;P1;durP1;ratioP1;P2;durP2;ratioP2
58252;SDS011;44050;48.884;8.762;2023-02-15T00:00:38;12.83;;;7.93;;
58252;SDS011;44050;48.884;8.762;2023-02-15T00:03:09;8.10;;;6.03;;
58252;SDS011;44050;48.884;8.762;2023-02-15T00:05:40;10.97;;;6.93;;
58252;SDS011;44050;48.884;8.762;2023-02-15T00:08:11;11.17;;;7.47;;
58252;SDS011;44050;48.884;8.762;2023-02-15T00:10:41;12.00;;;7.83;;
58252;SDS011;44050;48.884;8.762;2023-02-15T00:13:12;13.50;;;7.20;;
58252;SDS011;44050;48.884;8.762;2023-02-15T00:15:43;11.63;;;6.97;;
58252;SDS011;44050;48.884;8.762;2023-02-15T00:18:13;10.43;;;5.00;;
58252;SDS011;44050;48.884;8.762;2023-02-15T00:20:44;9.80;;;6.53;;
58252;SDS011;44050;48.884;8.762;2023-02-15T00:23:15;4.30;;;3.80;;
58252;SDS011;44050;48.884;8.762;2023-02-15T00:25:45;15.00;;;7.47;;
58252;SDS011;44050;48.884;8.762;2023-02-15T00:28:16;11.77;;;5.60;;
58252;SDS011;44050;48.884;8.762;2023-02-15T00:30:47;9.05;;;7.38;;
58252;SDS011;44050;48.884;8.762;2023-02-15T00:33:18;9.47;;;8.27;;
58252;SDS011;44050;48.884;8.762;2023-02-15T00:35:55;4.57;;;4.13;;
58252;SDS011;44050;48.884;8.762;2023-02-15T00:38:26;12.30;;;7.32;;
58252;SDS011;44050;48.884;8.762;2023-02-15T00:43:28;6.57;;;5.93;;
58252;SDS011;44050;48.884;8.762;2023-02-15T00:48:30;10.10;;;6.13;;
58252;SDS011;44050;48.884;8.762;2023-02-15T00:51:01;10.70;;;6.55;;
58252;SDS011;44050;48.884;8.762;2023-02-15T00:53:32;13.60;;;8.70;;
58252;SDS011;44050;48.884;8.762;2023-02-15T00:56:03;10.07;;;6.85;;
58252;SDS011;44050;48.884;8.762;2023-02-15T00:58:34;15.32;;;6.70;;
58252;SDS011;44050;48.884;8.762;2023-02-15T01:01:05;9.20;;;4.63;;
58252;SDS011;44050;48.884;8.762;2023-02-15T01:03:36;18.55;;;8.15;;
58252;SDS011;44050;48.884;8.762;2023-02-15T01:06:07;11.30;;;7.90;;
58252;SDS011;44050;48.884;8.762;2023-02-15T01:08:38;11.10;;;8.90;;
58252;SDS011;44050;48.884;8.762;2023-02-15T01:11:10;8.60;;;6.63;;
58252;SDS011;44050;48.884;8.762;2023-02-15T01:13:41;10.05;;;8.38;;
58252;SDS011;44050;48.884;8.762;2023-02-15T01:16:12;11.57;;;7.87;;
58252;SDS011;44050;48.884;8.762;2023-02-15T01:18:42;17.30;;;6.77;;
58252;SDS011;44050;48.884;8.762;2023-02-15T01:21:15;7.60;;;6.15;;
58252;SDS011;44050;48.884;8.762;2023-02-15T01:23:48;8.40;;;6.25;;
58252;SDS011;44050;48.884;8.762;2023-02-15T01:26:18;9.15;;;5.53;;
58252;SDS011;44050;48.884;8.762;2023-02-15T01:28:49;12.45;;;8.23;;
58252;SDS011;44050;48.884;8.762;2023-02-15T01:31:20;12.60;;;6.85;;
58252;SDS011;44050;48.884;8.762;2023-02-15T01:33:51;12.73;;;6.40;;
58252;SDS011;44050;48.884;8.762;2023-02-15T01:36:22;12.23;;;6.70;;
58252;SDS011;44050;48.884;8.762;2023-02-15T01:38:53;6.00;;;5.43;;
58252;SDS011;44050;48.884;8.762;2023-02-15T01:41:24;6.35;;;5.28;;
58252;SDS011;44050;48.884;8.762;2023-02-15T01:43:55;11.00;;;5.78;;
58252;SDS011;44050;48.884;8.762;2023-02-15T01:46:33;6.32;;;5.13;;
58252;SDS011;44050;48.884;8.762;2023-02-15T01:49:13;7.22;;;5.07;;
58252;SDS011;44050;48.884;8.762;2023-02-15T01:51:45;15.55;;;6.75;;
58252;SDS011;44050;48.884;8.762;2023-02-15T01:54:25;12.15;;;6.65;;
58252;SDS011;44050;48.884;8.762;2023-02-15T01:57:00;7.60;;;5.38;;
58252;SDS011;44050;48.884;8.762;2023-02-15T01:59:34;8.85;;;7.95;;
58252;SDS011;44050;48.884;8.762;2023-02-15T02:02:07;6.55;;;5.90;;
58252;SDS011;44050;48.884;8.762;2023-02-15T02:04:43;10.35;;;6.88;;
58252;SDS011;44050;48.884;8.762;2023-02-15T02:07:16;10.10;;;7.07;;
58252;SDS011;44050;48.884;8.762;2023-02-15T02:09:48;6.72;;;6.05;;
58252;SDS011;44050;48.884;8.762;2023-02-15T02:12:18;18.52;;;7.10;;
58252;SDS011;44050;48.884;8.762;2023-02-15T02:14:50;8.30;;;5.97;;
58252;SDS011;44050;48.884;8.762;2023-02-15T02:25:17;6.03;;;5.07;;
58252;SDS011;44050;48.884;8.762;2023-02-15T02:46:39;6.65;;;5.05;;
58252;SDS011;44050;48.884;8.762;2023-02-15T02:49:13;6.18;;;5.10;;
58252;SDS011;44050;48.884;8.762;2023-02-15T02:51:44;7.57;;;4.47;;
58252;SDS011;44050;48.884;8.762;2023-02-15T02:54:14;6.40;;;4.73;;
58252;SDS011;44050;48.884;8.762;2023-02-15T02:56:47;9.07;;;5.72;;
58252;SDS011;44050;48.884;8.762;2023-02-15T03:01:55;6.43;;;4.50;;
58252;SDS011;44050;48.884;8.762;2023-02-15T03:04:29;5.03;;;3.63;;
58252;SDS011;44050;48.884;8.762;2023-02-15T03:07:02;9.45;;;5.43;;
58252;SDS011;44050;48.884;8.762;2023-02-15T03:09:36;10.85;;;5.93;;
58252;SDS011;44050;48.884;8.762;2023-02-15T03:12:14;9.73;;;5.20;;
58252;SDS011;44050;48.884;8.762;2023-02-15T03:14:53;6.25;;;5.65;;
58252;SDS011;44050;48.884;8.762;2023-02-15T03:17:25;7.93;;;5.25;;
58252;SDS011;44050;48.884;8.762;2023-02-15T03:19:57;9.38;;;5.60;;
58252;SDS011;44050;48.884;8.762;2023-02-15T03:22:36;6.65;;;4.85;;
58252;SDS011;44050;48.884;8.762;2023-02-15T03:27:53;5.28;;;4.55;;
58252;SDS011;44050;48.884;8.762;2023-02-15T03:30:26;4.70;;;4.18;;
58252;SDS011;44050;48.884;8.762;2023-02-15T03:32:59;7.32;;;5.80;;
58252;SDS011;44050;48.884;8.762;2023-02-15T03:35:36;7.00;;;5.63;;
58252;SDS011;44050;48.884;8.762;2023-02-15T03:38:08;8.82;;;5.20;;
58252;SDS011;44050;48.884;8.762;2023-02-15T03:40:41;8.60;;;5.03;;
58252;SDS011;44050;48.884;8.762;2023-02-15T03:43:48;7.18;;;5.88;;
58252;SDS011;44050;48.884;8.762;2023-02-15T03:46:29;6.45;;;5.05;;
58252;SDS011;44050;48.884;8.762;2023-02-15T03:51:52;8.57;;;5.60;;
58252;SDS011;44050;48.884;8.762;2023-02-15T03:54:25;4.50;;;4.13;;
58252;SDS011;44050;48.884;8.762;2023-02-15T03:57:17;9.60;;;5.85;;
58252;SDS011;44050;48.884;8.762;2023-02-15T04:05:39;6.47;;;4.97;;
58252;SDS011;44050;48.884;8.762;2023-02-15T04:08:10;4.40;;;4.03;;
58252;SDS011;44050;48.884;8.762;2023-02-15T04:10:40;4.40;;;3.92;;
58252;SDS011;44050;48.884;8.762;2023-02-15T04:13:29;6.93;;;5.20;;
58252;SDS011;44050;48.884;8.762;2023-02-15T04:16:00;4.93;;;4.47;;
58252;SDS011;44050;48.884;8.762;2023-02-15T04:21:24;7.38;;;5.97;;
58252;SDS011;44050;48.884;8.762;2023-02-15T04:24:14;5.80;;;4.97;;
58252;SDS011;44050;48.884;8.762;2023-02-15T04:27:04;6.80;;;5.38;;
58252;SDS011;44050;48.884;8.762;2023-02-15T04:29:35;10.05;;;4.88;;
58252;SDS011;44050;48.884;8.762;2023-02-15T04:32:05;9.90;;;3.13;;
58252;SDS011;44050;48.884;8.762;2023-02-15T04:34:37;10.38;;;4.80;;
58252;SDS011;44050;48.884;8.762;2023-02-15T04:37:07;5.13;;;3.97;;
58252;SDS011;44050;48.884;8.762;2023-02-15T04:39:38;6.30;;;4.90;;
58252;SDS011;44050;48.884;8.762;2023-02-15T04:42:09;4.83;;;4.03;;
58252;SDS011;44050;48.884;8.762;2023-02-15T04:44:39;5.27;;;4.77;;
58252;SDS011;44050;48.884;8.762;2023-02-15T04:47:10;11.70;;;7.23;;
58252;SDS011;44050;48.884;8.762;2023-02-15T04:49:41;6.77;;;4.93;;
58252;SDS011;44050;48.884;8.762;2023-02-15T04:52:13;4.97;;;3.88;;
58252;SDS011;44050;48.884;8.762;2023-02-15T04:54:54;7.60;;;3.70;;
58252;SDS011;44050;48.884;8.762;2023-02-15T04:57:25;3.73;;;3.43;;
58252;SDS011;44050;48.884;8.762;2023-02-15T04:59:55;10.33;;;4.87;;
58252;SDS011;44050;48.884;8.762;2023-02-15T05:02:27;5.55;;;4.80;;
58252;SDS011;44050;48.884;8.762;2023-02-15T05:04:58;4.93;;;4.53;;
58252;SDS011;44050;48.884;8.762;2023-02-15T05:07:28;4.47;;;4.10;;
58252;SDS011;44050;48.884;8.762;2023-02-15T05:09:59;4.63;;;3.03;;
58252;SDS011;44050;48.884;8.762;2023-02-15T05:12:31;7.22;;;4.72;;
58252;SDS011;44050;48.884;8.762;2023-02-15T05:15:01;9.67;;;4.90;;
58252;SDS011;44050;48.884;8.762;2023-02-15T05:17:32;3.83;;;2.73;;
58252;SDS011;44050;48.884;8.762;2023-02-15T05:20:03;6.37;;;4.70;;
58252;SDS011;44050;48.884;8.762;2023-02-15T05:22:34;7.80;;;4.78;;
58252;SDS011;44050;48.884;8.762;2023-02-15T05:25:05;6.60;;;5.17;;
58252;SDS011;44050;48.884;8.762;2023-02-15T05:27:54;7.28;;;6.65;;
58252;SDS011;44050;48.884;8.762;2023-02-15T05:30:44;5.57;;;5.05;;
58252;SDS011;44050;48.884;8.762;2023-02-15T05:33:15;4.40;;;4.00;;
58252;SDS011;44050;48.884;8.762;2023-02-15T05:35:45;6.60;;;4.37;;
58252;SDS011;44050;48.884;8.762;2023-02-15T05:38:16;5.35;;;4.45;;
58252;SDS011;44050;48.884;8.762;2023-02-15T05:40:47;8.27;;;6.57;;
58252;SDS011;44050;48.884;8.762;2023-02-15T05:43:18;6.70;;;5.37;;
58252;SDS011;44050;48.884;8.762;2023-02-15T05:45:50;7.78;;;5.07;;
58252;SDS011;44050;48.884;8.762;2023-02-15T05:48:22;6.18;;;5.13;;
58252;SDS011;44050;48.884;8.762;2023-02-15T05:51:07;7.55;;;4.63;;
58252;SDS011;44050;48.884;8.762;2023-02-15T05:53:38;5.85;;;4.45;;
58252;SDS011;44050;48.884;8.762;2023-02-15T05:56:09;5.60;;;5.10;;
58252;SDS011;44050;48.884;8.762;2023-02-15T05:58:41;4.18;;;3.78;;
58252;SDS011;44050;48.884;8.762;2023-02-15T06:01:15;6.00;;;4.07;;
58252;SDS011;44050;48.884;8.762;2023-02-15T06:03:47;6.05;;;4.32;;
58252;SDS011;44050;48.884;8.762;2023-02-15T06:06:18;5.32;;;4.60;;
58252;SDS011;44050;48.884;8.762;2023-02-15T06:08:49;5.30;;;4.53;;
58252;SDS011;44050;48.884;8.762;2023-02-15T06:11:20;8.05;;;3.88;;
58252;SDS011;44050;48.884;8.762;2023-02-15T06:13:50;4.43;;;4.03;;
58252;SDS011;44050;48.884;8.762;2023-02-15T06:16:21;6.22;;;5.10;;
58252;SDS011;44050;48.884;8.762;2023-02-15T06:18:52;5.95;;;4.68;;
58252;SDS011;44050;48.884;8.762;2023-02-15T06:21:23;5.50;;;4.93;;
58252;SDS011;44050;48.884;8.762;2023-02-15T06:23:56;7.78;;;4.93;;
58252;SDS011;44050;48.884;8.762;2023-02-15T06:26:28;6.45;;;4.65;;
58252;SDS011;44050;48.884;8.762;2023-02-15T06:28:58;7.18;;;3.65;;
58252;SDS011;44050;48.884;8.762;2023-02-15T06:31:29;5.30;;;4.77;;
58252;SDS011;44050;48.884;8.762;2023-02-15T06:34:00;4.13;;;3.78;;
58252;SDS011;44050;48.884;8.762;2023-02-15T06:36:34;10.10;;;5.93;;
58252;SDS011;44050;48.884;8.762;2023-02-15T06:39:04;5.90;;;5.30;;
58252;SDS011;44050;48.884;8.762;2023-02-15T06:41:35;7.70;;;5.05;;
58252;SDS011;44050;48.884;8.762;2023-02-15T06:44:06;7.63;;;5.38;;
58252;SDS011;44050;48.884;8.762;2023-02-15T06:46:37;4.13;;;3.30;;
58252;SDS011;44050;48.884;8.762;2023-02-15T06:49:08;7.13;;;4.60;;
58252;SDS011;44050;48.884;8.762;2023-02-15T06:51:39;7.00;;;5.83;;
58252;SDS011;44050;48.884;8.762;2023-02-15T06:54:10;8.52;;;6.07;;
58252;SDS011;44050;48.884;8.762;2023-02-15T06:56:41;8.07;;;4.30;;
58252;SDS011;44050;48.884;8.762;2023-02-15T06:59:12;7.72;;;6.28;;
58252;SDS011;44050;48.884;8.762;2023-02-15T07:01:46;6.80;;;5.87;;
58252;SDS011;44050;48.884;8.762;2023-02-15T07:04:19;8.10;;;5.05;;
58252;SDS011;44050;48.884;8.762;2023-02-15T07:06:50;7.28;;;4.43;;
58252;SDS011;44050;48.884;8.762;2023-02-15T07:09:21;10.07;;;7.70;;
58252;SDS011;44050;48.884;8.762;2023-02-15T07:11:52;8.98;;;6.30;;
58252;SDS011;44050;48.884;8.762;2023-02-15T07:14:41;12.13;;;6.53;;
58252;SDS011;44050;48.884;8.762;2023-02-15T07:17:12;12.43;;;11.23;;
58252;SDS011;44050;48.884;8.762;2023-02-15T07:19:43;12.27;;;9.73;;
58252;SDS011;44050;48.884;8.762;2023-02-15T07:22:13;13.55;;;9.50;;
58252;SDS011;44050;48.884;8.762;2023-02-15T07:24:44;14.13;;;9.77;;
58252;SDS011;44050;48.884;8.762;2023-02-15T07:27:15;17.33;;;11.63;;
58252;SDS011;44050;48.884;8.762;2023-02-15T07:29:46;12.13;;;9.85;;
58252;SDS011;44050;48.884;8.762;2023-02-15T07:32:20;15.07;;;11.30;;
58252;SDS011;44050;48.884;8.762;2023-02-15T07:34:50;13.40;;;11.32;;
58252;SDS011;44050;48.884;8.762;2023-02-15T07:37:21;17.23;;;11.00;;
58252;SDS011;44050;48.884;8.762;2023-02-15T07:39:52;15.43;;;10.65;;
58252;SDS011;44050;48.884;8.762;2023-02-15T07:42:23;8.25;;;7.05;;
58252;SDS011;44050;48.884;8.762;2023-02-15T07:44:55;17.90;;;10.25;;
58252;SDS011;44050;48.884;8.762;2023-02-15T07:47:26;21.83;;;12.27;;
58252;SDS011;44050;48.884;8.762;2023-02-15T07:49:57;11.18;;;5.97;;
58252;SDS011;44050;48.884;8.762;2023-02-15T07:52:27;9.73;;;7.97;;
58252;SDS011;44050;48.884;8.762;2023-02-15T07:54:58;9.23;;;7.13;;
58252;SDS011;44050;48.884;8.762;2023-02-15T07:57:34;8.23;;;6.00;;
58252;SDS011;44050;48.884;8.762;2023-02-15T08:00:05;10.52;;;5.97;;
58252;SDS011;44050;48.884;8.762;2023-02-15T08:02:49;10.95;;;5.32;;
58252;SDS011;44050;48.884;8.762;2023-02-15T08:05:44;5.43;;;4.82;;
58252;SDS011;44050;48.884;8.762;2023-02-15T08:08:14;10.93;;;5.97;;
58252;SDS011;44050;48.884;8.762;2023-02-15T08:14:09;4.80;;;4.38;;
58252;SDS011;44050;48.884;8.762;2023-02-15T08:19:13;7.23;;;4.57;;
58252;SDS011;44050;48.884;8.762;2023-02-15T08:21:45;15.13;;;7.75;;
58252;SDS011;44050;48.884;8.762;2023-02-15T08:24:17;8.55;;;6.43;;
58252;SDS011;44050;48.884;8.762;2023-02-15T08:26:48;11.95;;;6.20;;
58252;SDS011;44050;48.884;8.762;2023-02-15T08:29:23;8.40;;;5.70;;
58252;SDS011;44050;48.884;8.762;2023-02-15T08:31:55;5.70;;;4.45;;
58252;SDS011;44050;48.884;8.762;2023-02-15T08:34:33;6.97;;;5.28;;
58252;SDS011;44050;48.884;8.762;2023-02-15T08:37:04;4.90;;;4.38;;
58252;SDS011;44050;48.884;8.762;2023-02-15T08:39:36;20.30;;;6.72;;
58252;SDS011;44050;48.884;8.762;2023-02-15T08:42:07;9.25;;;6.03;;
58252;SDS011;44050;48.884;8.762;2023-02-15T08:44:38;3.87;;;3.23;;
58252;SDS011;44050;48.884;8.762;2023-02-15T08:47:08;6.43;;;3.50;;
58252;SDS011;44050;48.884;8.762;2023-02-15T08:49:39;9.43;;;7.75;;
58252;SDS011;44050;48.884;8.762;2023-02-15T08:52:10;11.77;;;6.53;;
58252;SDS011;44050;48.884;8.762;2023-02-15T08:54:41;8.03;;;5.47;;
58252;SDS011;44050;48.884;8.762;2023-02-15T08:57:11;8.20;;;6.18;;
58252;SDS011;44050;48.884;8.762;2023-02-15T08:59:42;10.93;;;6.17;;
58252;SDS011;44050;48.884;8.762;2023-02-15T09:02:13;9.73;;;7.10;;
58252;SDS011;44050;48.884;8.762;2023-02-15T09:04:44;6.22;;;4.60;;
58252;SDS011;44050;48.884;8.762;2023-02-15T09:07:14;6.97;;;5.77;;
58252;SDS011;44050;48.884;8.762;2023-02-15T09:09:45;7.15;;;6.47;;
58252;SDS011;44050;48.884;8.762;2023-02-15T09:12:16;15.03;;;5.43;;
58252;SDS011;44050;48.884;8.762;2023-02-15T09:14:46;9.17;;;5.23;;
58252;SDS011;44050;48.884;8.762;2023-02-15T09:17:17;7.32;;;5.47;;
58252;SDS011;44050;48.884;8.762;2023-02-15T09:19:48;6.53;;;5.93;;
58252;SDS011;44050;48.884;8.762;2023-02-15T09:22:19;5.93;;;4.90;;
58252;SDS011;44050;48.884;8.762;2023-02-15T09:24:49;5.15;;;4.60;;
58252;SDS011;44050;48.884;8.762;2023-02-15T09:27:20;6.87;;;5.03;;
58252;SDS011;44050;48.884;8.762;2023-02-15T09:29:51;6.13;;;4.73;;
58252;SDS011;44050;48.884;8.762;2023-02-15T09:32:21;6.23;;;5.20;;
58252;SDS011;44050;48.884;8.762;2023-02-15T09:34:52;5.40;;;3.77;;
58252;SDS011;44050;48.884;8.762;2023-02-15T09:37:23;6.33;;;5.77;;
58252;SDS011;44050;48.884;8.762;2023-02-15T09:39:54;5.77;;;5.27;;
58252;SDS011;44050;48.884;8.762;2023-02-15T09:50:36;5.47;;;4.97;;
58252;SDS011;44050;48.884;8.762;2023-02-15T10:01:30;4.63;;;4.27;;
58252;SDS011;44050;48.884;8.762;2023-02-15T10:04:21;5.43;;;4.93;;
58252;SDS011;44050;48.884;8.762;2023-02-15T10:17:39;6.40;;;5.80;;
58252;SDS011;44050;48.884;8.762;2023-02-15T10:28:11;8.85;;;6.68;;
58252;SDS011;44050;48.884;8.762;2023-02-15T10:33:31;8.00;;;7.20;;
58252;SDS011;44050;48.884;8.762;2023-02-15T10:36:11;6.93;;;6.13;;
58252;SDS011;44050;48.884;8.762;2023-02-15T10:41:27;8.40;;;4.53;;
58252;SDS011;44050;48.884;8.762;2023-02-15T10:52:14;11.38;;;10.27;;
58252;SDS011;44050;48.884;8.762;2023-02-15T10:54:54;13.30;;;9.35;;
58252;SDS011;44050;48.884;8.762;2023-02-15T10:58:31;12.45;;;8.98;;
58252;SDS011;44050;48.884;8.762;2023-02-15T11:10:55;9.83;;;6.37;;
58252;SDS011;44050;48.884;8.762;2023-02-15T11:13:28;9.75;;;7.93;;
58252;SDS011;44050;48.884;8.762;2023-02-15T11:16:05;15.70;;;11.52;;
58252;SDS011;44050;48.884;8.762;2023-02-15T11:18:41;18.20;;;11.50;;
58252;SDS011;44050;48.884;8.762;2023-02-15T11:23:47;12.40;;;8.13;;
58252;SDS011;44050;48.884;8.762;2023-02-15T11:29:08;15.17;;;8.47;;
58252;SDS011;44050;48.884;8.762;2023-02-15T11:31:44;12.20;;;10.00;;
58252;SDS011;44050;48.884;8.762;2023-02-15T11:36:58;15.93;;;10.18;;
58252;SDS011;44050;48.884;8.762;2023-02-15T11:39:31;15.55;;;11.57;;
58252;SDS011;44050;48.884;8.762;2023-02-15T11:42:07;19.67;;;11.70;;
58252;SDS011;44050;48.884;8.762;2023-02-15T11:44:43;10.93;;;9.73;;
58252;SDS011;44050;48.884;8.762;2023-02-15T11:47:17;15.50;;;11.10;;
58252;SDS011;44050;48.884;8.762;2023-02-15T11:49:48;14.00;;;9.27;;
58252;SDS011;44050;48.884;8.762;2023-02-15T11:52:18;13.45;;;7.90;;
58252;SDS011;44050;48.884;8.762;2023-02-15T11:54:50;14.30;;;8.70;;
58252;SDS011;44050;48.884;8.762;2023-02-15T11:57:28;13.38;;;9.23;;
58252;SDS011;44050;48.884;8.762;2023-02-15T12:02:38;15.50;;;10.63;;
58252;SDS011;44050;48.884;8.762;2023-02-15T12:05:12;12.27;;;9.98;;
58252;SDS011;44050;48.884;8.762;2023-02-15T12:07:55;11.73;;;10.02;;
58252;SDS011;44050;48.884;8.762;2023-02-15T12:10:36;13.57;;;10.80;;
58252;SDS011;44050;48.884;8.762;2023-02-15T12:13:15;17.60;;;11.60;;
58252;SDS011;44050;48.884;8.762;2023-02-15T12:15:53;18.88;;;11.63;;
58252;SDS011;44050;48.884;8.762;2023-02-15T12:18:31;11.13;;;9.20;;
58252;SDS011;44050;48.884;8.762;2023-02-15T12:21:11;13.82;;;9.15;;
58252;SDS011;44050;48.884;8.762;2023-02-15T12:23:47;12.38;;;9.80;;
58252;SDS011;44050;48.884;8.762;2023-02-15T12:26:25;12.90;;;9.63;;
58252;SDS011;44050;48.884;8.762;2023-02-15T12:28:58;13.70;;;10.30;;
58252;SDS011;44050;48.884;8.762;2023-02-15T12:31:33;10.48;;;9.38;;
58252;SDS011;44050;48.884;8.762;2023-02-15T12:34:11;15.73;;;8.55;;
58252;SDS011;44050;48.884;8.762;2023-02-15T12:36:44;11.00;;;7.30;;
58252;SDS011;44050;48.884;8.762;2023-02-15T12:39:18;11.40;;;8.10;;
58252;SDS011;44050;48.884;8.762;2023-02-15T12:44:57;10.02;;;6.35;;
58252;SDS011;44050;48.884;8.762;2023-02-15T12:47:28;8.85;;;6.28;;
58252;SDS011;44050;48.884;8.762;2023-02-15T12:52:47;7.65;;;6.50;;
58252;SDS011;44050;48.884;8.762;2023-02-15T12:55:26;14.07;;;9.50;;
58252;SDS011;44050;48.884;8.762;2023-02-15T13:03:32;7.55;;;5.78;;
58252;SDS011;44050;48.884;8.762;2023-02-15T13:06:03;6.22;;;5.63;;
58252;SDS011;44050;48.884;8.762;2023-02-15T13:08:52;9.35;;;6.13;;
58252;SDS011;44050;48.884;8.762;2023-02-15T13:11:27;6.93;;;6.20;;
58252;SDS011;44050;48.884;8.762;2023-02-15T13:14:20;8.30;;;6.95;;
58252;SDS011;44050;48.884;8.762;2023-02-15T13:17:02;8.10;;;5.97;;
58252;SDS011;44050;48.884;8.762;2023-02-15T13:19:54;10.88;;;6.43;;
58252;SDS011;44050;48.884;8.762;2023-02-15T13:22:41;6.78;;;5.28;;
58252;SDS011;44050;48.884;8.762;2023-02-15T13:25:19;6.82;;;6.07;;
58252;SDS011;44050;48.884;8.762;2023-02-15T13:28:03;6.53;;;6.00;;
58252;SDS011;44050;48.884;8.762;2023-02-15T13:30:45;7.22;;;5.65;;
58252;SDS011;44050;48.884;8.762;2023-02-15T13:36:06;6.20;;;4.47;;
58252;SDS011;44050;48.884;8.762;2023-02-15T13:41:46;8.98;;;7.00;;
58252;SDS011;44050;48.884;8.762;2023-02-15T13:44:41;10.40;;;6.82;;
58252;SDS011;44050;48.884;8.762;2023-02-15T13:47:20;7.72;;;6.32;;
58252;SDS011;44050;48.884;8.762;2023-02-15T13:55:43;6.78;;;5.30;;
58252;SDS011;44050;48.884;8.762;2023-02-15T13:58:35;7.82;;;5.80;;
58252;SDS011;44050;48.884;8.762;2023-02-15T14:20:21;4.90;;;4.40;;
58252;SDS011;44050;48.884;8.762;2023-02-15T14:23:03;5.28;;;4.78;;
58252;SDS011;44050;48.884;8.762;2023-02-15T14:25:45;7.00;;;5.00;;
58252;SDS011;44050;48.884;8.762;2023-02-15T14:28:39;5.55;;;4.75;;
58252;SDS011;44050;48.884;8.762;2023-02-15T14:31:28;5.15;;;4.65;;
58252;SDS011;44050;48.884;8.762;2023-02-15T14:34:01;5.40;;;4.88;;
58252;SDS011;44050;48.884;8.762;2023-02-15T14:36:32;6.72;;;5.78;;
58252;SDS011;44050;48.884;8.762;2023-02-15T14:42:04;6.35;;;4.47;;
58252;SDS011;44050;48.884;8.762;2023-02-15T14:44:42;5.00;;;4.37;;
58252;SDS011;44050;48.884;8.762;2023-02-15T14:47:18;7.22;;;5.85;;
58252;SDS011;44050;48.884;8.762;2023-02-15T14:49:53;8.82;;;6.95;;
58252;SDS011;44050;48.884;8.762;2023-02-15T14:52:26;10.90;;;7.45;;
58252;SDS011;44050;48.884;8.762;2023-02-15T14:54:58;7.88;;;6.28;;
58252;SDS011;44050;48.884;8.762;2023-02-15T14:57:29;10.10;;;8.38;;
58252;SDS011;44050;48.884;8.762;2023-02-15T15:00:02;11.35;;;6.55;;
58252;SDS011;44050;48.884;8.762;2023-02-15T15:05:17;7.45;;;6.28;;
58252;SDS011;44050;48.884;8.762;2023-02-15T15:07:49;7.85;;;5.65;;
58252;SDS011;44050;48.884;8.762;2023-02-15T15:18:07;5.53;;;4.90;;
58252;SDS011;44050;48.884;8.762;2023-02-15T15:25:49;7.22;;;4.97;;
58252;SDS011;44050;48.884;8.762;2023-02-15T15:31:50;4.65;;;3.90;;
58252;SDS011;44050;48.884;8.762;2023-02-15T15:50:32;11.25;;;6.60;;
58252;SDS011;44050;48.884;8.762;2023-02-15T15:53:04;8.15;;;6.38;;
58252;SDS011;44050;48.884;8.762;2023-02-15T15:55:37;8.55;;;7.22;;
58252;SDS011;44050;48.884;8.762;2023-02-15T16:00:46;8.68;;;5.78;;
58252;SDS011;44050;48.884;8.762;2023-02-15T16:03:25;11.75;;;7.40;;
58252;SDS011;44050;48.884;8.762;2023-02-15T16:05:57;8.77;;;6.93;;
58252;SDS011;44050;48.884;8.762;2023-02-15T16:08:35;6.53;;;5.93;;
58252;SDS011;44050;48.884;8.762;2023-02-15T16:11:12;7.85;;;7.15;;
58252;SDS011;44050;48.884;8.762;2023-02-15T16:13:48;9.93;;;6.78;;
58252;SDS011;44050;48.884;8.762;2023-02-15T16:16:27;8.23;;;6.60;;
58252;SDS011;44050;48.884;8.762;2023-02-15T16:19:00;6.28;;;5.70;;
58252;SDS011;44050;48.884;8.762;2023-02-15T16:21:35;6.88;;;6.28;;
58252;SDS011;44050;48.884;8.762;2023-02-15T16:24:15;6.60;;;5.88;;
58252;SDS011;44050;48.884;8.762;2023-02-15T16:29:45;7.47;;;6.10;;
58252;SDS011;44050;48.884;8.762;2023-02-15T16:32:27;7.43;;;6.57;;
58252;SDS011;44050;48.884;8.762;2023-02-15T16:35:13;7.75;;;6.47;;
58252;SDS011;44050;48.884;8.762;2023-02-15T16:37:45;9.07;;;6.90;;
58252;SDS011;44050;48.884;8.762;2023-02-15T16:42:56;7.68;;;5.72;;
58252;SDS011;44050;48.884;8.762;2023-02-15T16:45:31;10.88;;;7.78;;
58252;SDS011;44050;48.884;8.762;2023-02-15T16:48:12;8.82;;;6.70;;
58252;SDS011;44050;48.884;8.762;2023-02-15T16:50:53;10.80;;;6.60;;
58252;SDS011;44050;48.884;8.762;2023-02-15T16:53:28;9.10;;;7.95;;
58252;SDS011;44050;48.884;8.762;2023-02-15T16:56:01;7.05;;;5.75;;
58252;SDS011;44050;48.884;8.762;2023-02-15T16:58:43;9.55;;;6.50;;
58252;SDS011;44050;48.884;8.762;2023-02-15T17:01:14;10.85;;;6.00;;
58252;SDS011;44050;48.884;8.762;2023-02-15T17:03:45;7.72;;;6.00;;
58252;SDS011;44050;48.884;8.762;2023-02-15T17:06:24;8.35;;;7.22;;
58252;SDS011;44050;48.884;8.762;2023-02-15T17:09:05;10.13;;;6.63;;
58252;SDS011;44050;48.884;8.762;2023-02-15T17:11:42;8.85;;;7.03;;
58252;SDS011;44050;48.884;8.762;2023-02-15T17:14:18;6.93;;;6.20;;
58252;SDS011;44050;48.884;8.762;2023-02-15T17:19:29;7.40;;;5.53;;
58252;SDS011;44050;48.884;8.762;2023-02-15T17:22:04;8.23;;;7.10;;
58252;SDS011;44050;48.884;8.762;2023-02-15T17:24:44;8.70;;;5.95;;
58252;SDS011;44050;48.884;8.762;2023-02-15T17:27:18;7.22;;;5.43;;
58252;SDS011;44050;48.884;8.762;2023-02-15T17:29:57;6.10;;;4.90;;
58252;SDS011;44050;48.884;8.762;2023-02-15T17:32:36;8.00;;;5.82;;
58252;SDS011;44050;48.884;8.762;2023-02-15T17:35:42;5.55;;;5.03;;
58252;SDS011;44050;48.884;8.762;2023-02-15T17:38:25;5.10;;;4.63;;
58252;SDS011;44050;48.884;8.762;2023-02-15T17:40:59;5.13;;;4.63;;
58252;SDS011;44050;48.884;8.762;2023-02-15T17:43:40;5.20;;;4.10;;
58252;SDS011;44050;48.884;8.762;2023-02-15T17:46:13;5.07;;;4.68;;
58252;SDS011;44050;48.884;8.762;2023-02-15T17:48:47;5.28;;;4.40;;
58252;SDS011;44050;48.884;8.762;2023-02-15T17:51:21;6.43;;;4.93;;
58252;SDS011;44050;48.884;8.762;2023-02-15T17:53:53;4.97;;;4.13;;
58252;SDS011;44050;48.884;8.762;2023-02-15T17:56:49;6.22;;;5.35;;
58252;SDS011;44050;48.884;8.762;2023-02-15T17:59:21;6.28;;;4.55;;
58252;SDS011;44050;48.884;8.762;2023-02-15T18:01:57;4.35;;;3.95;;
58252;SDS011;44050;48.884;8.762;2023-02-15T18:04:48;3.83;;;3.43;;
58252;SDS011;44050;48.884;8.762;2023-02-15T18:07:39;4.03;;;3.72;;
58252;SDS011;44050;48.884;8.762;2023-02-15T18:10:29;5.03;;;3.42;;
58252;SDS011;44050;48.884;8.762;2023-02-15T18:13:19;4.85;;;3.50;;
58252;SDS011;44050;48.884;8.762;2023-02-15T18:15:49;7.55;;;4.05;;
58252;SDS011;44050;48.884;8.762;2023-02-15T18:18:21;3.35;;;3.03;;
58252;SDS011;44050;48.884;8.762;2023-02-15T18:20:54;5.57;;;4.75;;
58252;SDS011;44050;48.884;8.762;2023-02-15T18:23:25;7.25;;;5.03;;
58252;SDS011;44050;48.884;8.762;2023-02-15T18:26:05;6.55;;;4.97;;
58252;SDS011;44050;48.884;8.762;2023-02-15T18:28:38;4.38;;;3.05;;
58252;SDS011;44050;48.884;8.762;2023-02-15T18:31:11;4.38;;;3.15;;
58252;SDS011;44050;48.884;8.762;2023-02-15T18:33:44;6.47;;;4.13;;
58252;SDS011;44050;48.884;8.762;2023-02-15T18:36:19;5.78;;;4.25;;
58252;SDS011;44050;48.884;8.762;2023-02-15T18:38:56;4.28;;;2.90;;
58252;SDS011;44050;48.884;8.762;2023-02-15T18:41:41;7.43;;;4.45;;
58252;SDS011;44050;48.884;8.762;2023-02-15T18:44:11;3.67;;;3.13;;
58252;SDS011;44050;48.884;8.762;2023-02-15T18:46:56;5.00;;;4.10;;
58252;SDS011;44050;48.884;8.762;2023-02-15T18:49:30;5.65;;;3.92;;
58252;SDS011;44050;48.884;8.762;2023-02-15T18:52:04;4.65;;;3.17;;
58252;SDS011;44050;48.884;8.762;2023-02-15T18:54:37;5.13;;;3.63;;
58252;SDS011;44050;48.884;8.762;2023-02-15T18:57:08;5.97;;;3.42;;
58252;SDS011;44050;48.884;8.762;2023-02-15T18:59:43;6.18;;;3.15;;
58252;SDS011;44050;48.884;8.762;2023-02-15T19:02:15;4.40;;;3.00;;